createdAt,value
2018-02-06T00:00:05.284Z,15.40
2018-02-06T00:02:33.823Z,15.60
2018-02-06T00:05:02.681Z,15.50
2018-02-06T00:07:30.938Z,14.53
2018-02-06T00:09:59.184Z,16.40
2018-02-06T00:12:27.450Z,17.77
2018-02-06T00:14:55.716Z,16.10
2018-02-06T00:17:24.205Z,14.10
2018-02-06T00:19:52.473Z,15.67
2018-02-06T00:22:20.033Z,16.97
2018-02-06T00:24:48.309Z,16.80
2018-02-06T00:27:17.173Z,15.37
2018-02-06T00:29:45.453Z,15.20
2018-02-06T00:32:13.718Z,17.00
2018-02-06T00:34:41.976Z,16.90
2018-02-06T00:37:10.246Z,13.50
2018-02-06T00:39:39.326Z,16.37
2018-02-06T00:42:07.741Z,15.27
2018-02-06T00:44:35.982Z,14.00
2018-02-06T00:47:04.745Z,15.90
2018-02-06T00:49:32.998Z,12.63
2018-02-06T00:52:01.286Z,12.47
2018-02-06T00:54:29.649Z,12.43
2018-02-06T00:56:58.677Z,14.50
2018-02-06T00:59:26.929Z,13.20
2018-02-06T01:01:55.192Z,13.50
2018-02-06T01:04:23.505Z,17.00
2018-02-06T01:06:51.892Z,13.27
2018-02-06T01:09:20.162Z,12.87
2018-02-06T01:11:48.438Z,12.70
2018-02-06T01:14:17.211Z,11.80
2018-02-06T01:16:45.453Z,11.90
2018-02-06T01:19:13.765Z,11.80
2018-02-06T01:21:42.018Z,13.53
2018-02-06T01:24:10.274Z,13.77
2018-02-06T01:26:38.554Z,12.50
2018-02-06T01:29:06.790Z,12.43
2018-02-06T01:31:35.073Z,12.07
2018-02-06T01:34:03.324Z,12.23
2018-02-06T01:36:31.581Z,12.83
2018-02-06T01:38:59.549Z,12.70
2018-02-06T01:41:27.805Z,11.97
2018-02-06T01:43:56.099Z,11.90
2018-02-06T01:46:24.357Z,12.30
2018-02-06T01:48:52.612Z,11.33
2018-02-06T01:51:20.873Z,11.20
2018-02-06T01:53:49.134Z,11.83
2018-02-06T01:56:17.384Z,11.97
2018-02-06T01:58:46.304Z,12.73
2018-02-06T02:01:14.571Z,12.50
2018-02-06T02:03:42.841Z,11.97
2018-02-06T02:06:11.165Z,12.33
2018-02-06T02:08:39.422Z,11.63
2018-02-06T02:11:07.678Z,12.90
2018-02-06T02:13:35.944Z,11.47
2018-02-06T02:16:04.775Z,10.33
2018-02-06T02:18:33.029Z,11.43
2018-02-06T02:21:01.283Z,10.73
2018-02-06T02:23:29.529Z,11.27
2018-02-06T02:25:57.792Z,10.80
2018-02-06T02:28:26.050Z,10.63
2018-02-06T02:30:54.310Z,11.80
2018-02-06T02:33:22.568Z,12.00
2018-02-06T02:35:50.817Z,11.13
2018-02-06T02:38:19.065Z,12.70
2018-02-06T02:40:47.595Z,10.27
2018-02-06T04:40:00.872Z,14.60
2018-02-06T04:42:29.429Z,16.48
2018-02-06T04:44:57.961Z,16.02
2018-02-06T04:47:26.260Z,15.70
2018-02-06T04:49:54.638Z,15.23
2018-02-06T04:52:23.194Z,15.52
2018-02-06T04:54:51.462Z,19.70
2018-02-06T04:57:20.764Z,16.20
2018-02-06T04:59:49.020Z,17.30
2018-02-06T05:02:17.261Z,15.47
2018-02-06T05:04:46.373Z,15.13
2018-02-06T05:07:14.634Z,15.73
2018-02-06T05:09:42.887Z,17.97
2018-02-06T05:12:11.146Z,16.43
2018-02-06T05:14:39.396Z,16.50
2018-02-06T05:17:07.944Z,18.98
2018-02-06T05:19:36.506Z,16.40
2018-02-06T05:22:04.865Z,17.20
2018-02-06T05:24:34.069Z,16.75
2018-02-06T05:27:02.354Z,18.00
2018-02-06T05:29:30.613Z,16.43
2018-02-06T05:31:58.880Z,16.40
2018-02-06T05:34:27.427Z,16.23
2018-02-06T05:36:55.966Z,16.25
2018-02-06T05:39:24.511Z,16.90
2018-02-06T05:41:53.889Z,16.30
2018-02-06T05:44:22.427Z,17.10
2018-02-06T05:46:50.673Z,16.57
2018-02-06T05:49:18.925Z,16.77
2018-02-06T05:51:47.698Z,17.02
2018-02-06T05:54:16.240Z,15.57
2018-02-06T05:56:44.775Z,17.60
2018-02-06T05:59:13.334Z,16.10
2018-02-06T06:01:41.703Z,16.83
2018-02-06T06:04:10.871Z,17.48
2018-02-06T06:06:39.117Z,16.83
2018-02-06T06:09:07.665Z,15.88
2018-02-06T06:11:36.209Z,15.90
2018-02-06T06:14:04.800Z,18.12
2018-02-06T06:16:33.336Z,18.55
2018-02-06T06:19:01.789Z,22.43
2018-02-06T06:21:31.710Z,21.33
2018-02-06T06:24:00.256Z,17.33
2018-02-06T06:26:28.799Z,19.27
2018-02-06T06:28:57.373Z,17.50
2018-02-06T06:31:26.082Z,16.52
2018-02-06T06:33:54.630Z,19.67
2018-02-06T06:36:23.185Z,15.00
2018-02-06T06:38:51.753Z,16.17
2018-02-06T06:41:20.399Z,17.08
2018-02-06T06:43:48.954Z,15.90
2018-02-06T06:46:17.657Z,16.58
2018-02-06T06:48:46.644Z,16.75
2018-02-06T06:51:15.210Z,18.87
2018-02-06T06:53:45.242Z,17.48
2018-02-06T06:56:13.802Z,16.20
2018-02-06T06:58:42.351Z,19.08
2018-02-06T07:01:10.920Z,19.27
2018-02-06T07:03:39.470Z,17.08
2018-02-06T07:06:10.356Z,15.75
2018-02-06T07:08:38.907Z,15.93
2018-02-06T07:11:07.450Z,16.45
2018-02-06T07:13:36.724Z,16.35
2018-02-06T07:16:05.281Z,15.98
2018-02-06T07:18:33.852Z,17.90
2018-02-06T07:21:02.397Z,16.02
2018-02-06T07:23:30.948Z,20.00
2018-02-06T07:25:59.512Z,16.42
2018-02-06T07:28:28.052Z,16.92
2018-02-06T07:30:56.610Z,15.75
2018-02-06T07:33:25.161Z,18.17
2018-02-06T07:35:54.453Z,21.08
2018-02-06T07:38:22.766Z,17.60
2018-02-06T07:40:51.330Z,20.00
2018-02-06T07:43:19.882Z,17.05
2018-02-06T07:45:48.438Z,18.42
2018-02-06T07:48:16.981Z,16.33
2018-02-06T07:50:45.246Z,13.90
2018-02-06T07:53:13.786Z,16.80
2018-02-06T07:55:42.337Z,16.67
2018-02-06T07:58:10.899Z,16.42
2018-02-06T08:00:39.457Z,15.65
2018-02-06T08:03:08.004Z,23.38
2018-02-06T08:05:36.621Z,18.55
2018-02-06T08:08:05.179Z,17.17
2018-02-06T08:10:33.722Z,16.15
2018-02-06T08:13:02.321Z,16.95
2018-02-06T08:15:30.868Z,16.87
2018-02-06T08:17:59.410Z,17.75
2018-02-06T08:20:27.658Z,16.43
2018-02-06T08:22:56.205Z,14.98
2018-02-06T08:25:27.360Z,16.12
2018-02-06T08:27:55.626Z,16.03
2018-02-06T08:30:24.962Z,16.60
2018-02-06T08:32:53.498Z,17.12
2018-02-06T08:35:22.044Z,16.77
2018-02-06T08:37:50.596Z,17.08
2018-02-06T08:40:19.908Z,16.83
2018-02-06T08:42:48.160Z,16.33
2018-02-06T08:45:16.705Z,16.87
2018-02-06T08:47:45.252Z,17.45
2018-02-06T08:50:15.410Z,15.83
2018-02-06T08:52:43.676Z,16.60
2018-02-06T08:55:11.929Z,17.83
2018-02-06T08:57:40.186Z,17.03
2018-02-06T09:00:14.723Z,15.97
2018-02-06T09:02:43.265Z,16.70
2018-02-06T09:05:11.521Z,17.03
2018-02-06T09:07:39.777Z,14.93
2018-02-06T09:10:14.206Z,16.40
2018-02-06T09:12:42.757Z,16.67
2018-02-06T09:15:11.041Z,17.17
2018-02-06T09:17:39.505Z,18.37
2018-02-06T09:20:10.367Z,18.10
2018-02-06T09:22:38.912Z,18.15
2018-02-06T09:25:09.296Z,18.60
2018-02-06T09:27:37.556Z,17.33
2018-02-06T09:30:14.177Z,17.70
2018-02-06T09:32:42.435Z,16.83
2018-02-06T09:35:10.702Z,16.93
2018-02-06T09:37:38.941Z,15.53
2018-02-06T09:40:12.128Z,16.47
2018-02-06T09:42:40.385Z,15.57
2018-02-06T09:45:09.093Z,16.13
2018-02-06T09:47:37.349Z,16.27
2018-02-06T09:52:40.576Z,16.93
2018-02-06T09:55:11.384Z,14.90
2018-02-06T09:57:39.632Z,15.67
2018-02-06T10:00:16.257Z,18.27
2018-02-06T10:02:44.525Z,18.17
2018-02-06T10:05:12.800Z,16.53
2018-02-06T10:07:41.045Z,16.40
2018-02-06T10:10:16.037Z,15.40
2018-02-06T10:12:44.633Z,14.73
2018-02-06T10:15:13.169Z,13.20
2018-02-06T10:17:41.478Z,14.20
2018-02-06T10:20:09.774Z,16.50
2018-02-06T10:22:38.336Z,15.90
2018-02-06T10:25:09.692Z,13.77
2018-02-06T10:27:37.944Z,15.40
2018-02-06T10:30:14.428Z,15.53
2018-02-06T10:32:43.218Z,12.87
2018-02-06T10:35:11.475Z,14.20
2018-02-06T10:37:39.732Z,15.37
2018-02-06T10:40:09.165Z,14.50
2018-02-06T10:42:37.408Z,12.53
2018-02-06T10:45:12.894Z,14.47
2018-02-06T10:47:41.155Z,15.13
2018-02-06T10:50:15.117Z,12.13
2018-02-06T10:52:43.391Z,14.43
2018-02-06T10:55:13.393Z,13.23
2018-02-06T10:57:41.681Z,13.80
2018-02-06T11:00:15.009Z,13.27
2018-02-06T11:02:43.278Z,14.63
2018-02-06T11:05:11.551Z,13.20
2018-02-06T11:07:39.826Z,13.60
2018-02-06T11:10:14.147Z,15.50
2018-02-06T11:12:42.420Z,14.40
2018-02-06T11:15:11.867Z,14.90
2018-02-06T11:17:40.244Z,13.30
2018-02-06T11:20:15.205Z,13.20
2018-02-06T11:22:44.342Z,16.23
2018-02-06T11:25:12.951Z,16.70
2018-02-06T11:27:41.369Z,17.37
2018-02-06T11:30:16.103Z,16.23
2018-02-06T11:32:46.030Z,18.20
2018-02-06T11:35:15.543Z,17.25
2018-02-06T11:37:43.809Z,15.70
2018-02-06T11:40:17.250Z,18.27
2018-02-06T11:42:45.500Z,17.13
2018-02-06T11:45:15.118Z,18.83
2018-02-06T11:47:43.374Z,17.80
2018-02-06T11:50:14.855Z,17.00
2018-02-06T11:52:43.118Z,17.73
2018-02-06T11:55:13.814Z,19.17
2018-02-06T11:57:42.078Z,17.53
2018-02-06T12:00:15.885Z,17.73
2018-02-06T12:02:44.132Z,17.40
2018-02-06T12:05:20.132Z,18.10
2018-02-06T12:07:48.404Z,17.87
2018-02-06T12:10:16.776Z,16.00
2018-02-06T12:12:45.029Z,17.73
2018-02-06T12:15:16.021Z,17.50
2018-02-06T12:17:44.283Z,17.00
2018-02-06T12:20:12.563Z,18.60
2018-02-06T12:22:40.811Z,19.83
2018-02-06T12:25:13.189Z,17.30
2018-02-06T12:27:41.485Z,17.33
2018-02-06T12:30:15.489Z,15.47
2018-02-06T12:32:44.479Z,18.00
2018-02-06T12:35:12.751Z,19.57
2018-02-06T12:37:41.026Z,19.77
2018-02-06T12:40:15.014Z,18.73
2018-02-06T12:42:43.279Z,18.70
2018-02-06T12:45:11.677Z,18.43
2018-02-06T12:47:40.567Z,19.47
2018-02-06T12:50:13.501Z,20.80
2018-02-06T12:52:41.765Z,18.83
2018-02-06T12:55:10.021Z,19.83
2018-02-06T12:57:38.283Z,21.20
2018-02-06T13:00:12.450Z,20.60
2018-02-06T13:02:40.701Z,20.60
2018-02-06T13:05:13.699Z,19.93
2018-02-06T13:07:42.730Z,19.43
2018-02-06T13:10:14.366Z,20.63
2018-02-06T13:12:42.629Z,19.23
2018-02-06T13:15:11.661Z,18.23
2018-02-06T13:17:39.908Z,21.10
2018-02-06T13:20:10.250Z,19.83
2018-02-06T13:22:38.505Z,19.83
2018-02-06T13:25:09.484Z,22.10
2018-02-06T13:27:37.738Z,19.47
2018-02-06T13:30:14.748Z,20.63
2018-02-06T13:32:43.010Z,19.57
2018-02-06T13:35:11.256Z,20.40
2018-02-06T13:37:39.335Z,20.60
2018-02-06T13:40:15.133Z,22.37
2018-02-06T13:42:43.398Z,22.00
2018-02-06T13:45:16.339Z,20.17
2018-02-06T13:47:44.800Z,23.10
2018-02-06T13:50:13.393Z,22.50
2018-02-06T13:52:41.657Z,19.20
2018-02-06T13:55:12.623Z,23.63
2018-02-06T13:57:45.868Z,21.93
2018-02-06T14:00:18.945Z,21.77
2018-02-06T14:02:47.897Z,21.07
2018-02-06T14:05:16.152Z,21.20
2018-02-06T14:07:44.621Z,23.07
2018-02-06T14:10:15.949Z,21.80
2018-02-06T14:12:44.967Z,23.23
2018-02-06T14:15:14.567Z,22.87
2018-02-06T14:17:42.844Z,22.20
2018-02-06T14:20:11.133Z,24.50
2018-02-06T14:22:39.397Z,23.40
2018-02-06T14:25:12.436Z,23.10
2018-02-06T14:27:40.736Z,21.83
2018-02-06T14:30:15.827Z,22.73
2018-02-06T14:32:44.084Z,22.20
2018-02-06T14:35:14.466Z,23.90
2018-02-06T14:37:45.041Z,24.73
2018-02-06T14:40:15.249Z,23.70
2018-02-06T14:42:43.497Z,24.20
2018-02-06T14:45:12.989Z,21.97
2018-02-06T14:47:41.251Z,24.80
2018-02-06T14:50:16.071Z,24.40
2018-02-06T14:52:44.320Z,22.00
2018-02-06T14:55:15.389Z,22.77
2018-02-06T14:57:43.637Z,23.60
2018-02-06T15:00:14.683Z,23.47
2018-02-06T15:02:42.947Z,24.10
2018-02-06T15:05:17.089Z,25.63
2018-02-06T15:07:45.445Z,23.37
2018-02-06T15:10:14.837Z,23.33
2018-02-06T15:12:43.105Z,23.20
2018-02-06T15:15:13.497Z,23.07
2018-02-06T15:17:41.771Z,24.70
2018-02-06T15:20:16.443Z,24.47
2018-02-06T15:22:44.514Z,22.70
2018-02-06T15:25:18.171Z,23.10
2018-02-06T15:27:46.429Z,22.97
2018-02-06T15:30:14.672Z,24.17
2018-02-06T15:32:43.116Z,24.77
2018-02-06T15:35:12.470Z,25.77
2018-02-06T15:37:40.716Z,24.87
2018-02-06T15:40:14.738Z,26.27
2018-02-06T15:42:42.311Z,25.00
2018-02-06T15:45:15.075Z,24.67
2018-02-06T15:47:43.193Z,24.53
2018-02-06T15:50:15.009Z,24.90
2018-02-06T15:52:43.256Z,26.70
2018-02-06T15:55:13.588Z,25.70
2018-02-06T15:57:41.837Z,27.17
2018-02-06T16:00:12.668Z,23.40
2018-02-06T16:02:41.073Z,26.97
2018-02-06T16:05:09.906Z,26.20
2018-02-06T16:07:38.362Z,28.30
2018-02-06T16:10:14.624Z,26.00
2018-02-06T16:12:43.613Z,26.10
2018-02-06T16:15:12.464Z,26.40
2018-02-06T16:17:40.817Z,27.40
2018-02-06T16:20:14.700Z,27.73
2018-02-06T16:22:42.961Z,25.37
2018-02-06T16:25:11.221Z,25.07
2018-02-06T16:27:39.494Z,27.07
2018-02-06T16:30:14.541Z,25.57
2018-02-06T16:32:42.801Z,21.80
2018-02-06T16:35:15.966Z,22.13
2018-02-06T16:37:45.229Z,21.40
2018-02-06T16:40:13.477Z,22.17
2018-02-06T16:42:41.723Z,21.90
2018-02-06T16:45:13.174Z,23.63
2018-02-06T16:47:41.417Z,27.70
2018-02-06T16:50:16.329Z,28.00
2018-02-06T16:52:44.577Z,29.60
2018-02-06T16:55:12.873Z,27.17
2018-02-06T16:57:41.131Z,29.07
2018-02-06T17:00:10.428Z,28.13
2018-02-06T17:02:44.106Z,27.30
2018-02-06T17:05:12.376Z,29.10
2018-02-06T17:07:40.677Z,26.80
2018-02-06T17:10:11.801Z,24.13
2018-02-06T17:12:40.061Z,26.40
2018-02-06T17:15:08.318Z,24.30
2018-02-06T17:17:36.870Z,24.43
2018-02-06T17:20:05.169Z,25.00
2018-02-06T17:22:33.512Z,25.47
2018-02-06T17:25:01.898Z,24.73
2018-02-06T17:27:29.983Z,25.10
2018-02-06T17:29:58.986Z,22.70
2018-02-06T17:32:27.248Z,24.07
2018-02-06T17:34:55.754Z,26.27
2018-02-06T17:37:24.023Z,23.57
2018-02-06T17:39:52.284Z,25.73
2018-02-06T17:42:20.565Z,24.40
2018-02-06T17:44:48.828Z,24.50
2018-02-06T17:47:17.098Z,24.80
2018-02-06T17:49:45.355Z,25.33
2018-02-06T17:52:13.601Z,27.57
2018-02-06T17:54:41.994Z,25.40
2018-02-06T17:57:10.242Z,24.80
2018-02-06T17:59:38.503Z,24.27
2018-02-06T18:02:06.786Z,24.70
2018-02-06T18:04:35.057Z,24.13
2018-02-06T18:07:03.313Z,25.17
2018-02-06T18:09:31.587Z,25.40
2018-02-06T18:11:59.845Z,22.20
2018-02-06T18:14:28.122Z,24.27
2018-02-06T18:16:56.378Z,23.73
2018-02-06T18:19:26.720Z,23.00
2018-02-06T18:21:55.019Z,23.67
2018-02-06T18:24:23.485Z,24.43
2018-02-06T18:26:51.764Z,27.23
2018-02-06T18:29:20.043Z,23.70
2018-02-06T18:31:48.337Z,21.50
2018-02-06T18:34:16.610Z,21.57
2018-02-06T18:36:44.904Z,21.40
2018-02-06T18:39:13.163Z,21.63
2018-02-06T18:41:41.429Z,20.27
2018-02-06T18:44:10.166Z,20.50
2018-02-06T18:46:38.857Z,21.00
2018-02-06T18:49:07.103Z,23.73
2018-02-06T18:51:35.381Z,23.27
2018-02-06T18:54:03.621Z,25.27
2018-02-06T18:56:31.889Z,20.87
2018-02-06T18:59:00.137Z,23.27
2018-02-06T19:01:28.399Z,21.67
2018-02-06T19:03:56.807Z,24.27
2018-02-06T19:06:25.077Z,21.23
2018-02-06T19:08:53.329Z,21.83
2018-02-06T19:11:21.746Z,26.10
2018-02-06T19:13:50.310Z,23.20
2018-02-06T19:16:18.816Z,23.40
2018-02-06T19:18:47.125Z,23.60
2018-02-06T19:21:15.384Z,23.37
2018-02-06T19:23:43.646Z,22.77
2018-02-06T19:26:11.910Z,24.63
2018-02-06T19:28:40.172Z,23.93
2018-02-06T19:31:09.211Z,24.10
2018-02-06T19:33:37.354Z,24.20
2018-02-06T19:36:05.600Z,26.40
2018-02-06T19:38:33.853Z,24.93
2018-02-06T19:41:02.146Z,25.47
2018-02-06T19:43:30.433Z,27.47
2018-02-06T19:45:58.761Z,26.30
2018-02-06T19:48:27.017Z,27.67
2018-02-06T19:50:55.283Z,24.40
2018-02-06T19:53:23.553Z,25.73
2018-02-06T19:55:51.820Z,26.20
2018-02-06T19:58:20.079Z,26.87
2018-02-06T20:00:48.337Z,25.83
2018-02-06T20:03:16.884Z,25.52
2018-02-06T20:05:45.157Z,25.37
2018-02-06T20:08:13.399Z,25.67
2018-02-06T20:10:42.567Z,25.77
2018-02-06T20:13:10.826Z,26.77
2018-02-06T20:15:39.385Z,26.45
2018-02-06T20:18:07.933Z,25.95
2018-02-06T20:20:36.203Z,24.53
2018-02-06T20:23:04.452Z,21.93
2018-02-06T20:25:41.334Z,23.30
2018-02-06T20:28:09.613Z,26.00
2018-02-06T20:30:37.866Z,25.00
2018-02-06T20:33:06.123Z,21.47
2018-02-06T20:35:34.426Z,23.60
2018-02-06T20:38:02.372Z,21.63
2018-02-06T20:40:30.629Z,21.50
2018-02-06T20:42:59.204Z,21.40
2018-02-06T20:45:27.473Z,20.67
2018-02-06T20:47:55.721Z,19.47
2018-02-06T20:50:24.537Z,20.17
2018-02-06T20:52:53.644Z,22.80
2018-02-06T20:55:29.879Z,20.10
2018-02-06T20:57:58.470Z,22.58
2018-02-06T21:00:27.021Z,19.45
2018-02-06T21:02:55.297Z,20.50
2018-02-06T21:05:23.838Z,22.75
2018-02-06T21:07:52.105Z,21.10
2018-02-06T21:10:20.659Z,20.65
2018-02-06T21:12:48.955Z,21.90
2018-02-06T21:15:17.218Z,22.03
2018-02-06T21:17:45.473Z,20.47
2018-02-06T21:20:19.124Z,21.90
2018-02-06T21:22:48.023Z,22.33
2018-02-06T21:25:16.927Z,20.07
2018-02-06T21:27:45.000Z,19.87
2018-02-06T21:30:18.728Z,20.93
2018-02-06T21:32:46.997Z,19.30
2018-02-06T21:35:15.255Z,19.27
2018-02-06T21:37:43.841Z,18.65
2018-02-06T21:40:16.262Z,18.13
2018-02-06T21:42:44.529Z,17.63
2018-02-06T21:45:18.539Z,18.10
2018-02-06T21:47:46.785Z,18.30
2018-02-06T21:50:16.691Z,18.00
2018-02-06T21:52:44.973Z,17.50
2018-02-06T21:55:15.926Z,19.10
2018-02-06T21:57:45.314Z,18.17
2018-02-06T22:00:16.518Z,19.47
2018-02-06T22:02:44.793Z,18.67
2018-02-06T22:05:17.175Z,18.20
2018-02-06T22:07:45.450Z,20.50
2018-02-06T22:10:18.029Z,20.10
2018-02-06T22:12:46.305Z,20.63
2018-02-06T22:15:14.573Z,20.47
2018-02-06T22:17:42.826Z,18.60
2018-02-06T22:20:17.313Z,18.93
2018-02-06T22:22:45.573Z,22.00
2018-02-06T22:25:16.764Z,20.00
2018-02-06T22:27:45.031Z,21.57
2018-02-06T22:30:15.161Z,22.53
2018-02-06T22:32:43.415Z,22.90
2018-02-06T22:35:16.607Z,23.37
2018-02-06T22:37:44.877Z,22.57
2018-02-06T22:40:17.592Z,22.87
2018-02-06T22:42:46.011Z,22.10
2018-02-06T22:45:15.250Z,22.60
2018-02-06T22:47:44.001Z,24.50
2018-02-06T22:50:16.491Z,21.50
2018-02-06T22:52:44.787Z,22.77
2018-02-06T22:55:17.106Z,25.00
2018-02-06T22:57:45.365Z,25.47
2018-02-06T23:00:30.393Z,25.77
2018-02-06T23:02:59.174Z,27.20
2018-02-06T23:05:27.461Z,25.37
2018-02-06T23:07:55.718Z,23.00
2018-02-06T23:10:23.989Z,26.00
2018-02-06T23:12:52.284Z,24.33
2018-02-06T23:15:20.543Z,23.67
2018-02-06T23:17:49.003Z,23.60
2018-02-06T23:20:17.334Z,23.17
2018-02-06T23:22:45.581Z,27.27
2018-02-06T23:25:13.968Z,27.57
2018-02-06T23:27:42.227Z,24.47
2018-02-06T23:30:14.914Z,26.43
2018-02-06T23:32:43.179Z,25.20
2018-02-06T23:35:16.219Z,26.13
2018-02-06T23:37:44.469Z,23.40
2018-02-06T23:40:16.035Z,24.27
2018-02-06T23:42:44.471Z,28.57
2018-02-06T23:45:16.175Z,25.10
2018-02-06T23:47:44.984Z,22.63
2018-02-06T23:50:16.926Z,23.20
2018-02-06T23:52:45.168Z,22.90
2018-02-06T23:55:18.234Z,23.70
2018-02-06T23:57:47.150Z,23.27
